createdAt,value
2019-02-25T00:00:14.048Z,209.92
2019-02-25T00:02:51.620Z,171.53
2019-02-25T00:05:29.629Z,172.43
2019-02-25T00:08:06.430Z,181.65
2019-02-25T00:10:43.199Z,184.43
2019-02-25T00:13:19.614Z,183.75
2019-02-25T00:15:56.471Z,176.85
2019-02-25T00:18:32.490Z,168.40
2019-02-25T00:21:09.114Z,153.45
2019-02-25T00:23:46.185Z,139.30
2019-02-25T00:26:23.154Z,153.90
2019-02-25T00:29:00.340Z,134.67
2019-02-25T00:31:36.532Z,128.68
2019-02-25T00:34:13.115Z,114.62
2019-02-25T00:36:50.406Z,95.70
2019-02-25T00:39:27.371Z,102.47
2019-02-25T00:42:04.410Z,98.00
2019-02-25T00:44:41.445Z,95.72
2019-02-25T00:47:18.273Z,92.78
2019-02-25T00:49:54.645Z,104.70
2019-02-25T00:52:31.302Z,85.80
2019-02-25T00:55:09.292Z,89.13
2019-02-25T00:57:46.822Z,87.20
2019-02-25T01:00:23.779Z,87.20
2019-02-25T01:03:00.670Z,78.78
2019-02-25T01:05:37.394Z,81.20
2019-02-25T01:08:14.096Z,77.85
2019-02-25T01:10:50.935Z,75.25
2019-02-25T01:13:28.123Z,72.62
2019-02-25T01:16:06.068Z,78.65
2019-02-25T01:18:44.965Z,68.10
2019-02-25T01:21:21.694Z,76.00
2019-02-25T01:23:58.315Z,80.85
2019-02-25T01:26:35.949Z,78.67
2019-02-25T01:29:12.787Z,72.37
2019-02-25T01:31:49.509Z,71.07
2019-02-25T01:34:26.596Z,72.85
2019-02-25T01:37:03.026Z,78.07
2019-02-25T01:39:40.077Z,68.40
2019-02-25T01:42:18.403Z,66.10
2019-02-25T01:44:55.715Z,74.60
2019-02-25T01:47:32.534Z,79.03
2019-02-25T01:50:09.690Z,71.07
2019-02-25T01:52:46.379Z,69.32
2019-02-25T01:55:23.430Z,66.75
2019-02-25T01:58:00.298Z,66.12
2019-02-25T02:00:37.785Z,72.45
2019-02-25T02:03:14.884Z,69.90
2019-02-25T02:05:51.507Z,67.53
2019-02-25T02:08:29.148Z,66.02
2019-02-25T02:11:06.188Z,69.37
2019-02-25T02:13:43.082Z,61.50
2019-02-25T02:16:19.878Z,65.52
2019-02-25T02:18:58.088Z,63.68
2019-02-25T02:21:35.913Z,67.40
2019-02-25T02:24:13.832Z,63.20
2019-02-25T02:26:50.662Z,62.58
2019-02-25T02:29:27.699Z,65.45
2019-02-25T02:32:04.632Z,68.10
2019-02-25T02:34:41.591Z,59.05
2019-02-25T02:37:18.565Z,68.25
2019-02-25T02:39:55.383Z,63.83
2019-02-25T02:42:32.180Z,63.95
2019-02-25T02:45:14.221Z,62.93
2019-02-25T02:48:16.815Z,60.88
2019-02-25T02:50:53.612Z,63.13
2019-02-25T02:53:30.651Z,63.25
2019-02-25T02:56:07.295Z,65.90
2019-02-25T02:58:45.443Z,74.92
2019-02-25T03:01:22.278Z,71.20
2019-02-25T03:03:59.747Z,60.50
2019-02-25T03:06:37.948Z,62.13
2019-02-25T03:09:14.654Z,60.00
2019-02-25T03:11:51.151Z,66.17
2019-02-25T03:14:28.109Z,67.90
2019-02-25T03:17:05.829Z,63.00
2019-02-25T03:19:43.365Z,56.92
2019-02-25T03:22:20.302Z,64.87
2019-02-25T03:24:57.053Z,57.62
2019-02-25T03:27:34.124Z,62.35
2019-02-25T03:30:13.725Z,60.65
2019-02-25T03:32:51.261Z,59.15
2019-02-25T03:35:28.013Z,59.65
2019-02-25T03:38:06.535Z,56.40
2019-02-25T03:40:43.485Z,62.13
2019-02-25T03:43:20.556Z,71.82
2019-02-25T03:45:57.577Z,59.83
2019-02-25T03:48:34.255Z,60.90
2019-02-25T03:51:10.677Z,58.02
2019-02-25T03:53:47.780Z,60.52
2019-02-25T03:56:24.154Z,54.85
2019-02-25T03:59:01.667Z,56.53
2019-02-25T04:01:38.627Z,58.15
2019-02-25T04:04:15.808Z,58.33
2019-02-25T04:06:52.817Z,57.15
2019-02-25T04:09:29.555Z,57.43
2019-02-25T04:12:06.839Z,56.75
2019-02-25T04:14:43.790Z,59.30
2019-02-25T04:17:21.484Z,56.70
2019-02-25T04:19:58.548Z,51.80
2019-02-25T04:22:35.517Z,56.08
2019-02-25T04:25:13.221Z,52.23
2019-02-25T04:27:49.997Z,56.65
2019-02-25T04:30:27.159Z,54.18
2019-02-25T04:33:03.878Z,66.33
2019-02-25T04:35:40.744Z,48.98
2019-02-25T04:38:34.072Z,48.05
2019-02-25T04:41:12.053Z,53.63
2019-02-25T04:43:50.446Z,53.15
2019-02-25T04:46:27.288Z,48.52
2019-02-25T04:49:04.009Z,52.30
2019-02-25T04:51:40.997Z,48.95
2019-02-25T04:54:17.546Z,48.70
2019-02-25T04:56:55.065Z,56.92
2019-02-25T04:59:31.741Z,47.75
2019-02-25T05:02:10.442Z,52.83
2019-02-25T05:04:47.990Z,51.53
2019-02-25T05:07:25.179Z,50.08
2019-02-25T05:10:01.952Z,49.38
2019-02-25T05:12:38.928Z,52.60
2019-02-25T05:15:17.528Z,49.58
2019-02-25T05:20:47.424Z,52.33
2019-02-25T05:23:24.261Z,54.45
2019-02-25T05:26:01.528Z,48.00
2019-02-25T05:28:38.192Z,46.58
2019-02-25T05:31:15.346Z,48.68
2019-02-25T05:34:08.867Z,49.03
2019-02-25T05:36:46.086Z,48.33
2019-02-25T05:39:23.264Z,48.05
2019-02-25T05:41:59.861Z,46.13
2019-02-25T05:44:36.936Z,45.05
2019-02-25T05:47:13.307Z,45.05
2019-02-25T05:49:50.299Z,52.48
2019-02-25T05:52:26.967Z,71.82
2019-02-25T05:55:04.041Z,46.20
2019-02-25T05:57:41.206Z,44.18
2019-02-25T06:00:22.776Z,44.38
2019-02-25T06:03:00.049Z,46.18
2019-02-25T06:05:36.209Z,48.52
2019-02-25T06:08:12.586Z,45.35
2019-02-25T06:10:49.921Z,44.88
2019-02-25T06:13:26.680Z,39.65
2019-02-25T06:16:03.596Z,44.23
2019-02-25T06:18:40.322Z,44.93
2019-02-25T06:21:17.320Z,39.30
2019-02-25T06:23:54.491Z,41.35
2019-02-25T06:26:31.818Z,38.48
2019-02-25T06:29:08.983Z,40.17
2019-02-25T06:31:45.670Z,34.33
2019-02-25T06:34:22.432Z,34.92
2019-02-25T06:36:59.660Z,38.00
2019-02-25T06:39:35.892Z,34.40
2019-02-25T06:42:12.767Z,36.25
2019-02-25T06:44:49.302Z,39.83
2019-02-25T06:47:26.451Z,37.67
2019-02-25T06:50:03.599Z,31.77
2019-02-25T06:52:40.870Z,38.92
2019-02-25T06:55:18.765Z,34.63
2019-02-25T06:57:55.926Z,36.15
2019-02-25T07:00:32.767Z,33.60
2019-02-25T07:03:09.599Z,32.73
2019-02-25T07:05:53.248Z,32.78
2019-02-25T07:09:07.032Z,37.33
2019-02-25T07:12:17.096Z,31.35
2019-02-25T07:15:10.558Z,35.20
2019-02-25T07:18:06.820Z,31.70
2019-02-25T07:20:51.377Z,30.35
2019-02-25T07:23:49.241Z,36.48
2019-02-25T07:26:33.191Z,30.17
2019-02-25T07:29:19.786Z,29.07
2019-02-25T07:32:12.650Z,30.48
2019-02-25T07:35:03.529Z,27.80
2019-02-25T07:37:51.750Z,30.37
2019-02-25T07:40:45.557Z,29.85
2019-02-25T07:43:40.574Z,34.33
2019-02-25T07:46:41.496Z,28.80
2019-02-25T07:49:25.539Z,25.77
2019-02-25T07:52:14.052Z,28.52
2019-02-25T07:55:07.673Z,26.05
2019-02-25T07:58:09.566Z,26.87
2019-02-25T08:01:09.064Z,27.67
2019-02-25T08:04:14.499Z,27.15
2019-02-25T08:07:09.100Z,26.62
2019-02-25T08:09:56.701Z,28.95
2019-02-25T08:12:48.766Z,25.50
2019-02-25T08:15:46.774Z,27.55
2019-02-25T08:18:54.347Z,25.10
2019-02-25T08:21:50.340Z,26.27
2019-02-25T08:24:47.627Z,27.67
2019-02-25T08:27:37.968Z,24.27
2019-02-25T08:30:21.658Z,29.00
2019-02-25T08:33:28.574Z,25.50
2019-02-25T08:37:06.031Z,33.20
2019-02-25T08:39:56.220Z,26.35
2019-02-25T08:42:39.957Z,22.95
2019-02-25T08:45:34.966Z,23.35
2019-02-25T08:48:19.464Z,21.93
2019-02-25T08:50:56.381Z,27.80
2019-02-25T08:53:33.406Z,23.12
2019-02-25T08:56:11.724Z,26.35
2019-02-25T08:58:48.690Z,27.20
2019-02-25T09:01:25.553Z,23.92
2019-02-25T09:04:02.448Z,26.68
2019-02-25T09:06:39.330Z,24.25
2019-02-25T09:09:15.970Z,30.57
2019-02-25T09:11:52.615Z,27.10
2019-02-25T09:14:29.606Z,31.10
2019-02-25T09:17:06.491Z,26.77
2019-02-25T09:19:43.759Z,24.47
2019-02-25T09:22:20.684Z,33.70
2019-02-25T09:24:58.612Z,34.05
2019-02-25T09:27:35.412Z,40.75
2019-02-25T09:30:16.805Z,35.88
2019-02-25T09:32:53.194Z,36.05
2019-02-25T09:35:29.881Z,33.63
2019-02-25T09:38:07.624Z,37.80
2019-02-25T09:40:44.862Z,38.73
2019-02-25T09:43:21.433Z,45.80
2019-02-25T09:45:58.419Z,40.90
2019-02-25T09:48:35.501Z,38.70
2019-02-25T09:51:12.247Z,35.48
2019-02-25T09:53:48.855Z,36.88
2019-02-25T09:56:26.043Z,39.95
2019-02-25T09:59:02.703Z,37.73
2019-02-25T10:01:39.509Z,39.42
2019-02-25T10:04:16.500Z,35.80
2019-02-25T10:07:01.997Z,35.90
2019-02-25T10:09:32.415Z,34.98
2019-02-25T10:12:09.324Z,37.42
2019-02-25T10:14:46.714Z,38.33
2019-02-25T10:17:24.050Z,32.80
2019-02-25T10:20:01.347Z,49.67
2019-02-25T10:22:38.235Z,53.33
2019-02-25T10:25:15.396Z,38.80
2019-02-25T10:27:52.055Z,35.28
2019-02-25T10:30:28.755Z,33.88
2019-02-25T10:33:06.022Z,36.58
2019-02-25T10:35:42.750Z,39.88
2019-02-25T10:38:20.002Z,46.83
2019-02-25T10:40:59.265Z,40.08
2019-02-25T10:43:36.560Z,42.23
2019-02-25T10:46:15.349Z,38.53
2019-02-25T10:48:54.433Z,38.63
2019-02-25T10:51:32.095Z,37.38
2019-02-25T10:54:08.884Z,35.95
2019-02-25T10:56:51.640Z,36.17
2019-02-25T10:59:29.920Z,34.88
2019-02-25T11:02:06.923Z,43.33
2019-02-25T11:04:43.957Z,41.35
2019-02-25T11:07:20.805Z,48.33
2019-02-25T11:10:24.522Z,43.48
2019-02-25T11:13:02.181Z,38.67
2019-02-25T11:15:41.832Z,67.12
2019-02-25T11:18:20.245Z,43.48
2019-02-25T11:20:58.868Z,53.80
2019-02-25T11:23:35.212Z,63.87
2019-02-25T11:26:12.603Z,54.18
2019-02-25T11:28:55.562Z,56.25
2019-02-25T11:31:29.445Z,57.08
2019-02-25T11:34:08.014Z,71.40
2019-02-25T11:36:44.839Z,61.08
2019-02-25T11:39:21.889Z,65.72
2019-02-25T11:41:58.573Z,76.80
2019-02-25T11:44:35.607Z,60.95
2019-02-25T11:47:12.587Z,55.10
2019-02-25T11:49:50.803Z,93.90
2019-02-25T11:52:27.555Z,59.73
2019-02-25T11:55:08.099Z,54.83
2019-02-25T11:57:44.626Z,62.93
2019-02-25T12:00:23.155Z,55.50
2019-02-25T12:02:59.958Z,54.70
2019-02-25T12:05:37.585Z,49.40
2019-02-25T12:08:14.023Z,52.62
2019-02-25T12:10:51.090Z,58.13
2019-02-25T12:13:28.968Z,84.15
2019-02-25T12:16:06.060Z,72.70
2019-02-25T12:18:43.985Z,49.67
2019-02-25T12:21:20.989Z,50.85
2019-02-25T12:23:57.649Z,49.75
2019-02-25T12:26:34.501Z,50.78
2019-02-25T12:29:11.251Z,49.77
2019-02-25T12:31:48.738Z,41.20
2019-02-25T12:34:25.402Z,46.02
2019-02-25T12:37:02.179Z,51.33
2019-02-25T12:39:40.340Z,50.67
2019-02-25T12:42:17.125Z,54.15
2019-02-25T12:44:53.960Z,60.30
2019-02-25T12:47:31.146Z,51.73
2019-02-25T12:50:08.490Z,53.68
2019-02-25T12:52:45.585Z,55.43
2019-02-25T12:55:22.037Z,56.10
2019-02-25T12:57:59.313Z,45.25
2019-02-25T13:00:36.212Z,45.58
2019-02-25T13:03:13.671Z,47.78
2019-02-25T13:05:50.409Z,39.90
2019-02-25T13:08:27.355Z,31.02
2019-02-25T13:11:04.034Z,34.73
2019-02-25T13:13:40.348Z,31.52
2019-02-25T13:16:17.042Z,35.30
2019-02-25T13:18:53.976Z,31.75
2019-02-25T13:21:43.332Z,31.42
2019-02-25T13:24:20.636Z,34.23
2019-02-25T13:26:57.662Z,30.95
2019-02-25T13:29:34.691Z,36.68
2019-02-25T13:32:11.778Z,42.50
2019-02-25T13:34:48.718Z,48.63
2019-02-25T13:37:25.328Z,38.23
2019-02-25T13:40:02.223Z,47.48
2019-02-25T13:42:40.251Z,38.80
2019-02-25T13:45:18.279Z,51.10
2019-02-25T17:42:37.568Z,75.50
2019-02-25T17:45:19.068Z,75.90
2019-02-25T17:47:58.783Z,75.85
2019-02-25T17:50:39.317Z,86.45
2019-02-25T17:53:18.676Z,85.12
2019-02-25T17:55:58.225Z,74.37
2019-02-25T17:58:39.906Z,81.35
2019-02-25T18:01:19.667Z,79.65
2019-02-25T18:03:59.892Z,89.05
2019-02-25T18:06:38.850Z,94.13
2019-02-25T18:09:19.922Z,81.20
2019-02-25T18:11:58.006Z,89.37
2019-02-25T18:14:38.646Z,80.62
2019-02-25T18:17:19.204Z,98.87
2019-02-25T18:19:57.874Z,74.90
2019-02-25T18:22:36.987Z,73.70
2019-02-25T18:25:15.795Z,76.77
2019-02-25T18:27:54.967Z,79.62
2019-02-25T18:30:35.023Z,73.80
2019-02-25T18:33:14.460Z,83.62
2019-02-25T18:35:53.162Z,73.42
2019-02-25T18:38:32.018Z,80.47
2019-02-25T18:41:10.711Z,79.05
2019-02-25T18:43:51.500Z,81.02
2019-02-25T18:46:30.732Z,76.40
2019-02-25T18:49:11.628Z,81.42
2019-02-25T18:51:50.238Z,74.22
2019-02-25T18:54:29.012Z,76.30
2019-02-25T18:57:09.145Z,78.60
2019-02-25T18:59:48.311Z,78.50
2019-02-25T19:02:27.414Z,72.97
2019-02-25T19:05:07.137Z,76.37
2019-02-25T19:07:47.203Z,84.40
2019-02-25T19:10:26.840Z,81.60
2019-02-25T19:13:06.041Z,80.07
2019-02-25T19:15:45.059Z,78.65
2019-02-25T19:18:24.756Z,77.67
2019-02-25T19:21:04.435Z,88.85
2019-02-25T19:23:44.061Z,87.50
2019-02-25T19:26:23.943Z,80.17
2019-02-25T19:29:02.660Z,84.28
2019-02-25T19:31:42.529Z,78.85
2019-02-25T19:34:21.719Z,74.85
2019-02-25T19:37:02.269Z,77.12
2019-02-25T19:39:41.550Z,80.90
2019-02-25T19:42:22.436Z,76.97
2019-02-25T19:45:05.299Z,81.75
2019-02-25T19:47:43.266Z,82.37
2019-02-25T19:50:22.566Z,79.97
2019-02-25T19:53:04.615Z,85.25
2019-02-25T19:55:43.412Z,75.83
2019-02-25T19:58:21.680Z,79.27
2019-02-25T20:01:01.259Z,82.08
2019-02-25T20:03:42.482Z,86.80
2019-02-25T20:06:21.548Z,98.72
2019-02-25T20:09:00.527Z,88.55
2019-02-25T20:11:40.010Z,81.55
2019-02-25T20:14:19.729Z,82.95
2019-02-25T20:16:58.422Z,74.30
2019-02-25T20:19:36.911Z,81.72
2019-02-25T20:22:16.759Z,88.40
2019-02-25T20:24:57.660Z,87.20
2019-02-25T20:27:35.881Z,81.60
2019-02-25T20:30:16.697Z,89.87
2019-02-25T20:32:55.782Z,84.67
2019-02-25T20:35:34.296Z,79.32
2019-02-25T20:38:14.335Z,90.50
2019-02-25T20:40:53.810Z,89.75
2019-02-25T20:43:33.396Z,85.92
2019-02-25T20:46:13.080Z,89.40
2019-02-25T20:48:53.141Z,89.37
2019-02-25T20:51:33.612Z,91.17
2019-02-25T20:54:13.541Z,80.53
2019-02-25T20:56:53.210Z,88.22
2019-02-25T20:59:33.128Z,83.27
2019-02-25T21:02:15.799Z,81.17
2019-02-25T21:04:52.285Z,84.77
2019-02-25T21:07:33.831Z,83.00
2019-02-25T21:10:13.124Z,91.50
2019-02-25T21:12:52.975Z,85.17
2019-02-25T21:15:33.306Z,83.52
2019-02-25T21:18:12.041Z,95.25
2019-02-25T21:20:51.505Z,87.70
2019-02-25T21:23:31.064Z,88.45
2019-02-25T21:26:11.383Z,88.55
2019-02-25T21:28:54.054Z,94.17
2019-02-25T21:31:31.309Z,85.62
2019-02-25T21:34:10.234Z,88.70
2019-02-25T21:36:49.172Z,91.95
2019-02-25T21:39:28.373Z,92.88
2019-02-25T21:42:10.644Z,90.55
2019-02-25T21:44:50.134Z,86.30
2019-02-25T21:47:28.708Z,88.82
2019-02-25T21:50:09.629Z,88.25
2019-02-25T21:52:48.548Z,90.62
2019-02-25T21:55:43.196Z,88.33
2019-02-25T21:58:23.595Z,83.70
2019-02-25T22:01:02.131Z,88.50
2019-02-25T22:03:45.738Z,84.28
2019-02-25T22:06:22.621Z,89.42
2019-02-25T22:09:49.671Z,87.57
2019-02-25T22:12:32.735Z,82.40
2019-02-25T22:15:10.828Z,90.55
2019-02-25T22:17:50.688Z,90.00
2019-02-25T22:20:29.862Z,91.25
2019-02-25T22:23:08.625Z,99.85
2019-02-25T22:25:47.465Z,105.67
2019-02-25T22:28:28.271Z,92.20
2019-02-25T22:31:08.271Z,103.30
2019-02-25T22:33:46.269Z,93.37
2019-02-25T22:36:24.900Z,88.20
2019-02-25T22:39:05.399Z,90.92
2019-02-25T22:41:46.308Z,107.55
2019-02-25T22:44:26.772Z,94.85
2019-02-25T22:47:07.144Z,115.12
2019-02-25T22:49:45.272Z,138.45
2019-02-25T22:52:24.774Z,130.12
2019-02-25T22:55:05.947Z,129.95
2019-02-25T22:57:46.100Z,132.37
2019-02-25T23:00:33.144Z,144.55
2019-02-25T23:03:15.283Z,135.43
2019-02-25T23:05:55.081Z,131.15
2019-02-25T23:08:33.313Z,119.87
2019-02-25T23:11:14.107Z,118.15
2019-02-25T23:13:52.530Z,109.85
2019-02-25T23:16:32.281Z,95.12
2019-02-25T23:19:11.903Z,72.17
2019-02-25T23:21:51.254Z,60.40
2019-02-25T23:24:30.465Z,62.25
2019-02-25T23:27:09.719Z,61.37
2019-02-25T23:29:48.433Z,65.83
2019-02-25T23:32:27.318Z,61.92
2019-02-25T23:35:09.436Z,59.80
2019-02-25T23:37:49.031Z,58.68
2019-02-25T23:40:26.183Z,70.50
2019-02-25T23:43:07.228Z,58.20
2019-02-25T23:45:46.294Z,60.00
2019-02-25T23:48:26.774Z,69.22
2019-02-25T23:51:05.130Z,69.10
2019-02-25T23:53:43.703Z,67.53
2019-02-25T23:56:25.011Z,69.30
2019-02-25T23:59:02.767Z,69.92
